Time;durP1;ratioP1;P1;durP2;ratioP2;P2;SDS_P1;SDS_P2;PMS_P1;PMS_P2;Temp;Humidity;BMP_temperature;BMP_pressure;BME280_temperature;BME280_humidity;BME280_pressure;Samples;Min_cycle;Max_cycle;Signal;HPM_P1;HPM_P2
2021/05/21 00:01:45;;;;;;;2.80;1.00;;;;;;;17.36;46.03;100669.63;4940844;28;114540;-63
2021/05/21 00:04:12;;;;;;;2.88;1.20;;;;;;;17.37;46.20;100663.31;4935464;28;113838;-64
2021/05/21 00:06:39;;;;;;;2.42;1.00;;;;;;;17.37;45.84;100663.31;4933126;28;124222;-63
2021/05/21 00:09:06;;;;;;;2.05;1.02;;;;;;;17.39;46.25;100656.00;4931967;28;123884;-64
2021/05/21 00:11:33;;;;;;;2.72;1.08;;;;;;;17.38;46.06;100654.28;4931537;28;114347;-63
2021/05/21 00:14:00;;;;;;;3.70;1.17;;;;;;;17.39;46.05;100656.00;4937717;28;113590;-64
2021/05/21 00:16:27;;;;;;;2.47;1.10;;;;;;;17.38;46.12;100655.13;4937796;28;124300;-63
2021/05/21 00:18:54;;;;;;;4.57;1.10;;;;;;;17.37;46.14;100652.59;4939295;28;124168;-63
2021/05/21 00:21:21;;;;;;;3.72;1.33;;;;;;;17.38;46.24;100646.25;4936313;28;114801;-63
2021/05/21 00:23:49;;;;;;;2.72;0.90;;;;;;;17.38;46.13;100638.22;4937081;28;114298;-63
2021/05/21 00:26:16;;;;;;;4.85;1.20;;;;;;;17.38;46.39;100632.88;4937084;28;123837;-64
2021/05/21 00:28:43;;;;;;;3.35;1.10;;;;;;;17.37;46.19;100631.19;4931345;28;124279;-63
2021/05/21 00:31:10;;;;;;;3.58;1.17;;;;;;;17.37;46.18;100628.50;4942878;28;115345;-64
2021/05/21 00:33:37;;;;;;;2.05;1.15;;;;;;;17.38;46.36;100616.81;4937522;28;113991;-64
2021/05/21 00:36:04;;;;;;;1.90;1.00;;;;;;;17.37;46.24;100615.13;4939686;28;124157;-64
2021/05/21 00:38:32;;;;;;;1.83;0.90;;;;;;;17.39;46.26;100605.13;4929882;28;123755;-63
2021/05/21 00:41:00;;;;;;;3.42;1.10;;;;;;;17.39;46.44;100605.13;4939290;28;114326;-63
2021/05/21 00:43:27;;;;;;;2.45;0.90;;;;;;;17.39;46.28;100603.31;4932957;28;114431;-63
2021/05/21 00:45:54;;;;;;;2.10;1.10;;;;;;;17.40;46.32;100604.16;4934261;28;124144;-63
2021/05/21 00:48:21;;;;;;;3.42;1.10;;;;;;;17.38;46.29;100600.75;4932016;28;124337;-63
2021/05/21 00:50:49;;;;;;;2.95;1.15;;;;;;;17.38;46.47;100590.03;4934358;28;114398;-63
2021/05/21 00:53:26;;;;;;;3.28;1.00;;;;;;;17.38;46.40;100584.69;4932225;28;114629;-64
2021/05/21 00:55:59;;;;;;;2.42;1.00;;;;;;;17.38;46.65;100590.88;4931352;28;124470;-64
2021/05/21 00:58:27;;;;;;;1.80;0.98;;;;;;;17.38;46.38;100595.38;4938883;28;123999;-63
2021/05/21 01:00:55;;;;;;;4.38;1.20;;;;;;;17.37;46.51;100588.34;4938956;28;114278;-63
2021/05/21 01:03:22;;;;;;;4.00;1.40;;;;;;;17.37;46.63;100577.63;4936026;28;114194;-64
2021/05/21 01:05:50;;;;;;;2.72;1.15;;;;;;;17.36;46.71;100565.22;4935884;28;124268;-63
2021/05/21 01:08:17;;;;;;;2.47;1.00;;;;;;;17.38;46.59;100568.63;4933018;28;124319;-63
2021/05/21 01:11:03;;;;;;;2.13;1.10;;;;;;;17.39;46.56;100559.63;4935295;28;114178;-63
2021/05/21 01:13:31;;;;;;;3.33;1.17;;;;;;;17.38;46.62;100553.41;4939188;28;113860;-63
2021/05/21 01:15:59;;;;;;;2.22;1.13;;;;;;;17.39;46.67;100559.63;4937627;28;122193;-64
2021/05/21 01:18:26;;;;;;;2.35;1.10;;;;;;;17.38;46.75;100550.72;4935559;28;124379;-64
2021/05/21 01:20:53;;;;;;;3.17;1.10;;;;;;;17.39;46.67;100543.56;4940222;28;115922;-64
2021/05/21 01:23:20;;;;;;;3.40;1.20;;;;;;;17.38;46.77;100536.50;4949172;28;115348;-64
2021/05/21 01:25:47;;;;;;;2.63;1.10;;;;;;;17.39;46.89;100538.22;4935071;28;124393;-64
2021/05/21 01:28:16;;;;;;;2.45;1.10;;;;;;;17.38;46.67;100536.50;4938611;28;124046;-63
2021/05/21 01:30:44;;;;;;;3.72;1.10;;;;;;;17.37;46.80;100534.81;4941205;28;114549;-63
2021/05/21 01:33:12;;;;;;;2.22;1.05;;;;;;;17.35;46.71;100532.25;4937291;28;114644;-63
2021/05/21 01:35:40;;;;;;;3.58;1.10;;;;;;;17.34;46.82;100530.53;4935815;28;124343;-63
2021/05/21 01:38:08;;;;;;;3.92;1.20;;;;;;;17.34;47.01;100527.00;4930679;28;124159;-64
2021/05/21 01:40:37;;;;;;;4.57;1.33;;;;;;;17.32;46.75;100527.97;4938929;28;114497;-64
2021/05/21 01:43:04;;;;;;;2.72;1.02;;;;;;;17.30;46.92;100519.22;4936271;28;114318;-63
2021/05/21 01:45:31;;;;;;;2.20;1.02;;;;;;;17.29;46.84;100522.00;4940064;28;123065;-64
2021/05/21 01:47:58;;;;;;;3.35;1.17;;;;;;;17.25;46.91;100510.72;4935873;28;126569;-64
2021/05/21 01:50:26;;;;;;;3.92;1.10;;;;;;;17.25;46.93;100509.84;4940938;28;115614;-64
2021/05/21 01:52:53;;;;;;;4.25;1.10;;;;;;;17.23;47.10;100501.91;4941863;28;114590;-64
2021/05/21 01:55:20;;;;;;;1.85;1.10;;;;;;;17.21;46.98;100487.81;4936697;28;124216;-64
2021/05/21 01:57:47;;;;;;;4.45;1.35;;;;;;;17.22;47.03;100483.31;4939781;28;124630;-63
2021/05/21 02:00:15;;;;;;;2.78;0.90;;;;;;;17.21;47.18;100478.94;4940105;28;114678;-63
2021/05/21 02:02:42;;;;;;;4.00;1.33;;;;;;;17.19;47.06;100473.69;4932452;28;114053;-63
2021/05/21 02:05:10;;;;;;;3.63;1.30;;;;;;;17.19;47.18;100484.41;4939904;28;124470;-64
2021/05/21 02:07:37;;;;;;;2.80;1.25;;;;;;;17.19;47.08;100489.75;4937586;28;123914;-63
2021/05/21 02:10:08;;;;;;;4.22;1.40;;;;;;;17.16;47.26;100473.97;4947871;28;114638;-63
2021/05/21 02:12:36;;;;;;;2.95;1.10;;;;;;;17.15;47.25;100471.41;4940987;28;114871;-64
2021/05/21 02:15:07;;;;;;;4.93;1.30;;;;;;;17.12;47.28;100462.63;4935983;28;124808;-64
2021/05/21 02:17:34;;;;;;;2.95;1.10;;;;;;;17.13;47.32;100458.13;4944254;28;123999;-64
2021/05/21 02:20:04;;;;;;;3.45;1.10;;;;;;;17.14;47.36;100454.50;4929948;28;114562;-66
2021/05/21 02:22:32;;;;;;;3.72;1.23;;;;;;;17.14;47.28;100465.19;4930664;28;114277;-64
2021/05/21 02:25:01;;;;;;;3.28;1.00;;;;;;;17.12;47.33;100461.75;4936980;28;127046;-63
2021/05/21 02:27:28;;;;;;;4.50;1.05;;;;;;;17.11;47.49;100455.56;4936763;28;123947;-63
2021/05/21 02:29:56;;;;;;;3.15;1.00;;;;;;;17.11;47.45;100454.72;4934510;28;114211;-63
2021/05/21 02:32:23;;;;;;;3.88;1.20;;;;;;;17.11;47.64;100460.06;4935494;28;113971;-63
2021/05/21 02:34:51;;;;;;;3.83;1.30;;;;;;;17.12;47.53;100451.06;4932431;28;124061;-63
2021/05/21 02:37:18;;;;;;;3.13;1.23;;;;;;;17.12;47.60;100451.06;4934515;28;124617;-63
2021/05/21 02:39:45;;;;;;;2.58;1.30;;;;;;;17.12;47.55;100445.72;4935643;28;114701;-63
2021/05/21 02:42:13;;;;;;;2.63;1.02;;;;;;;17.12;47.48;100445.72;4931250;28;113996;-64
2021/05/21 02:44:40;;;;;;;2.95;1.20;;;;;;;17.10;47.47;100432.47;4935513;28;123284;-63
2021/05/21 02:47:07;;;;;;;3.67;1.30;;;;;;;17.10;47.53;100435.16;4931309;28;123835;-63
2021/05/21 02:49:35;;;;;;;2.92;1.10;;;;;;;17.10;47.58;100442.31;4938444;28;114574;-63
2021/05/21 02:52:02;;;;;;;4.00;1.33;;;;;;;17.11;47.48;100444.03;4934493;28;114008;-63
2021/05/21 02:54:29;;;;;;;3.25;1.20;;;;;;;17.10;47.48;100450.34;4934860;28;123883;-63
2021/05/21 02:56:56;;;;;;;3.92;1.45;;;;;;;17.10;47.74;100479.78;4934425;28;124353;-63
2021/05/21 02:59:24;;;;;;;4.40;1.55;;;;;;;17.09;48.20;100472.72;4938617;28;114557;-63
2021/05/21 03:01:51;;;;;;;4.38;1.75;;;;;;;17.05;48.74;100456.06;4932799;28;114971;-63
2021/05/21 03:04:18;;;;;;;6.90;2.00;;;;;;;16.99;49.12;100482.44;4939677;28;124107;-63
2021/05/21 03:06:45;;;;;;;7.80;2.28;;;;;;;16.89;49.55;100472.44;4936477;28;124379;-63
2021/05/21 03:09:12;;;;;;;11.32;2.53;;;;;;;16.79;49.85;100458.06;4935699;28;114471;-63
2021/05/21 03:11:39;;;;;;;8.07;2.65;;;;;;;16.72;50.24;100470.19;4932653;28;114237;-63
2021/05/21 03:14:06;;;;;;;10.13;2.67;;;;;;;16.65;50.51;100463.59;4931853;28;124154;-64
2021/05/21 03:16:34;;;;;;;8.50;2.88;;;;;;;16.59;50.83;100464.09;4934272;28;123175;-64
2021/05/21 03:19:01;;;;;;;12.70;2.90;;;;;;;16.52;51.12;100461.88;4934810;28;114259;-64
2021/05/21 03:21:28;;;;;;;9.52;2.60;;;;;;;16.46;51.30;100465.03;4933424;28;113905;-66
2021/05/21 03:23:55;;;;;;;8.05;2.67;;;;;;;16.40;51.49;100460.13;4932337;28;124332;-66
2021/05/21 03:26:23;;;;;;;12.32;2.70;;;;;;;16.39;51.67;100457.56;4933500;28;123981;-66
2021/05/21 03:28:50;;;;;;;10.13;2.78;;;;;;;16.36;51.85;100453.31;4931977;28;114548;-66
2021/05/21 03:31:17;;;;;;;8.45;2.85;;;;;;;16.31;51.99;100445.66;4940042;28;114327;-66
2021/05/21 03:33:44;;;;;;;10.93;3.03;;;;;;;16.27;52.18;100446.00;4938829;28;124766;-66
2021/05/21 03:36:11;;;;;;;12.55;3.17;;;;;;;16.24;52.30;100443.56;4940022;28;124562;-66
2021/05/21 03:38:38;;;;;;;15.07;3.50;;;;;;;16.21;52.40;100438.44;4927895;28;114289;-66
2021/05/21 03:41:06;;;;;;;15.00;3.30;;;;;;;16.17;52.46;100428.97;4938346;28;114155;-66
2021/05/21 03:43:33;;;;;;;11.23;3.03;;;;;;;16.12;52.59;100419.47;4939050;28;124413;-66
2021/05/21 03:46:00;;;;;;;11.07;3.22;;;;;;;16.08;52.43;100423.31;4938665;28;123980;-66
2021/05/21 03:48:29;;;;;;;11.50;2.85;;;;;;;16.03;52.63;100419.28;4938021;28;115379;-66
2021/05/21 03:50:56;;;;;;;12.15;2.95;;;;;;;15.97;52.60;100425.94;4937990;28;115106;-65
2021/05/21 03:53:23;;;;;;;11.68;3.03;;;;;;;15.93;52.81;100419.13;4935077;28;124741;-63
2021/05/21 03:55:51;;;;;;;9.55;2.95;;;;;;;15.90;52.75;100411.38;4937033;28;124897;-63
2021/05/21 03:58:18;;;;;;;14.68;3.22;;;;;;;15.85;52.83;100416.19;4936921;28;114373;-63
2021/05/21 04:00:45;;;;;;;12.75;3.30;;;;;;;15.81;53.02;100414.72;4922821;28;113628;-66
2021/05/21 04:03:13;;;;;;;11.27;3.03;;;;;;;15.76;53.21;100410.56;4937320;28;123922;-66
2021/05/21 04:05:40;;;;;;;13.45;3.03;;;;;;;15.75;53.21;100410.69;4933949;28;124768;-66
2021/05/21 04:08:08;;;;;;;10.57;2.72;;;;;;;15.74;53.44;100401.78;4931619;28;114585;-66
2021/05/21 04:10:36;;;;;;;14.13;3.25;;;;;;;15.71;53.30;100399.34;4932472;28;113918;-66
2021/05/21 04:13:03;;;;;;;11.13;2.85;;;;;;;15.69;53.42;100405.75;4932250;28;122936;-66
2021/05/21 04:15:31;;;;;;;17.27;3.78;;;;;;;15.66;53.59;100401.50;4930256;28;124117;-66
2021/05/21 04:17:58;;;;;;;11.57;3.17;;;;;;;15.66;53.71;100404.16;4936898;28;114264;-66
2021/05/21 04:20:26;;;;;;;8.77;2.67;;;;;;;15.66;53.76;100396.16;4934642;28;115075;-66
2021/05/21 04:22:53;;;;;;;10.00;2.72;;;;;;;15.67;53.75;100400.53;4932727;28;124385;-66
2021/05/21 04:25:20;;;;;;;14.48;3.60;;;;;;;15.66;53.84;100393.47;4937609;28;124314;-66
2021/05/21 04:27:47;;;;;;;11.13;3.30;;;;;;;15.66;53.81;100390.81;4934355;28;114011;-66
2021/05/21 04:30:15;;;;;;;17.05;3.60;;;;;;;15.65;53.89;100394.47;4929606;28;114615;-66
2021/05/21 04:32:42;;;;;;;11.90;3.10;;;;;;;15.66;54.01;100388.13;4944445;28;122965;-66
2021/05/21 04:35:09;;;;;;;11.40;3.50;;;;;;;15.67;53.88;100387.19;4933743;28;124074;-66
2021/05/21 04:37:36;;;;;;;11.50;3.03;;;;;;;15.65;53.94;100389.13;4938982;28;115844;-66
2021/05/21 04:40:05;;;;;;;11.38;3.40;;;;;;;15.64;54.09;100379.38;4929132;28;114970;-66
2021/05/21 04:42:47;;;;;;;15.02;3.58;;;;;;;15.64;53.91;100382.06;4932682;28;123939;-66
2021/05/21 04:45:17;;;;;;;9.82;3.13;;;;;;;15.63;53.84;100380.34;4936607;28;124131;-66
2021/05/21 04:47:45;;;;;;;10.38;2.58;;;;;;;15.59;53.86;100384.22;4938723;28;113968;-66
2021/05/21 04:50:12;;;;;;;10.90;2.80;;;;;;;15.58;53.68;100385.19;4934629;28;113952;-66
2021/05/21 04:52:39;;;;;;;13.45;2.90;;;;;;;15.59;53.64;100389.53;4943014;28;124296;-66
2021/05/21 04:55:06;;;;;;;11.27;2.80;;;;;;;15.60;53.70;100380.59;4937937;28;123717;-66
2021/05/21 04:57:34;;;;;;;14.90;3.17;;;;;;;15.61;53.54;100386.78;4934829;28;114490;-66
2021/05/21 05:00:01;;;;;;;12.90;3.15;;;;;;;15.63;53.78;100390.19;4934304;28;114176;-66
2021/05/21 05:02:28;;;;;;;16.10;3.00;;;;;;;15.68;53.59;100380.88;4938408;28;124257;-66
2021/05/21 05:04:56;;;;;;;9.93;2.60;;;;;;;15.71;53.41;100383.31;4936798;28;123953;-66
2021/05/21 05:07:23;;;;;;;10.73;2.60;;;;;;;15.74;53.38;100371.59;4934833;28;114756;-66
2021/05/21 05:09:50;;;;;;;10.95;2.75;;;;;;;15.77;53.25;100372.22;4932830;28;114322;-64
2021/05/21 05:12:17;;;;;;;10.75;2.90;;;;;;;15.81;53.24;100366.66;4933658;28;124352;-66
2021/05/21 05:14:44;;;;;;;13.45;2.95;;;;;;;15.84;53.00;100371.75;4943168;28;125215;-66
2021/05/21 05:17:11;;;;;;;7.60;2.40;;;;;;;15.85;52.45;100362.78;4937883;28;114709;-66
2021/05/21 05:19:38;;;;;;;10.07;2.38;;;;;;;15.88;52.11;100357.19;4942117;28;114420;-66
2021/05/21 05:22:06;;;;;;;9.63;2.40;;;;;;;15.90;51.93;100355.28;4935422;28;123991;-66
2021/05/21 05:24:34;;;;;;;10.93;2.15;;;;;;;15.94;51.87;100354.06;4936025;28;124217;-66
2021/05/21 05:27:01;;;;;;;11.05;2.40;;;;;;;15.99;51.72;100359.91;4940517;28;114207;-65
2021/05/21 05:29:33;;;;;;;13.27;2.72;;;;;;;16.03;51.39;100353.38;4943053;28;115182;-66
2021/05/21 05:32:02;;;;;;;9.68;2.40;;;;;;;16.06;51.16;100349.63;4943670;28;124462;-64
2021/05/21 05:34:29;;;;;;;13.00;2.40;;;;;;;16.08;50.71;100348.53;4937408;28;124604;-65
2021/05/21 05:36:56;;;;;;;12.88;2.65;;;;;;;16.11;50.57;100353.66;4935494;28;114080;-64
2021/05/21 05:39:23;;;;;;;13.20;2.50;;;;;;;16.12;50.26;100344.69;4935892;28;113860;-64
2021/05/21 05:41:51;;;;;;;15.05;2.60;;;;;;;16.13;50.05;100346.34;4932855;28;123985;-64
2021/05/21 05:44:20;;;;;;;11.88;2.38;;;;;;;16.14;49.97;100337.38;4989051;22;123667;-67
2021/05/21 05:46:47;;;;;;;14.07;2.88;;;;;;;16.15;49.63;100336.41;4991182;28;114252;-66
2021/05/21 05:49:14;;;;;;;18.88;3.08;;;;;;;16.17;49.68;100335.44;4992881;28;114981;-67
2021/05/21 05:51:42;;;;;;;15.10;3.10;;;;;;;16.20;49.55;100324.50;4972920;28;123374;-66
2021/05/21 05:54:09;;;;;;;16.90;3.15;;;;;;;16.24;49.50;100326.00;4987318;28;124529;-69
2021/05/21 05:56:36;;;;;;;12.75;2.92;;;;;;;16.27;49.43;100320.41;4989810;28;113814;-67
2021/05/21 05:59:03;;;;;;;14.38;3.10;;;;;;;16.33;49.30;100330.59;4989100;28;112423;-67
2021/05/21 06:01:30;;;;;;;16.00;3.17;;;;;;;16.40;49.23;100321.16;4991527;28;124045;-66
2021/05/21 06:03:57;;;;;;;12.63;2.95;;;;;;;16.48;48.89;100318.75;5003206;28;122704;-67
2021/05/21 06:06:24;;;;;;;14.73;2.58;;;;;;;16.53;48.89;100321.88;4990390;28;114335;-66
2021/05/21 06:08:56;;;;;;;16.00;2.63;;;;;;;16.57;48.36;100321.66;4992824;28;113725;-66
2021/05/21 06:11:24;;;;;;;13.90;2.78;;;;;;;16.60;48.61;100310.72;4990118;28;123443;-70
2021/05/21 06:13:52;;;;;;;15.75;3.03;;;;;;;16.60;48.17;100321.44;4990790;28;124617;-67
2021/05/21 06:16:19;;;;;;;15.18;3.50;;;;;;;16.55;48.03;100325.28;4987548;28;114840;-67
2021/05/21 06:18:49;;;;;;;13.30;2.55;;;;;;;16.50;48.18;100332.84;4992053;28;115415;-68
2021/05/21 06:21:17;;;;;;;12.70;3.22;;;;;;;16.44;48.60;100337.78;4992489;28;125207;-68
2021/05/21 06:23:45;;;;;;;13.75;3.15;;;;;;;16.37;48.84;100336.56;4989018;28;124708;-68
2021/05/21 06:28:53;;;;;;;14.77;3.40;;;;;;;16.17;49.81;100314.06;4992035;28;114542;-68
2021/05/21 06:31:21;;;;;;;14.27;3.22;;;;;;;16.09;49.87;100310.16;4991687;28;124439;-68
2021/05/21 06:33:49;;;;;;;11.30;2.55;;;;;;;16.04;50.16;100315.00;4991193;28;124647;-68
2021/05/21 06:36:16;;;;;;;13.98;3.15;;;;;;;16.00;50.51;100321.56;4991806;28;114860;-68
2021/05/21 06:38:43;;;;;;;13.75;3.10;;;;;;;15.97;50.77;100324.44;4989769;28;115560;-68
2021/05/21 06:41:10;;;;;;;18.20;3.40;;;;;;;15.93;51.34;100333.66;4987734;28;122011;-68
2021/05/21 06:43:38;;;;;;;19.45;3.40;;;;;;;15.89;51.36;100332.19;4989507;28;123342;-68
2021/05/21 06:46:05;;;;;;;16.63;3.75;;;;;;;15.83;51.71;100338.00;4970048;28;112622;-68
2021/05/21 06:48:32;;;;;;;20.08;3.80;;;;;;;15.77;51.97;100329.47;4972976;28;113314;-67
2021/05/21 06:51:02;;;;;;;18.63;3.20;;;;;;;15.73;52.40;100312.00;4972306;28;123393;-68
2021/05/21 06:53:29;;;;;;;19.80;3.33;;;;;;;15.71;52.71;100308.56;4972431;28;122890;-68
2021/05/21 06:55:57;;;;;;;14.18;3.40;;;;;;;15.71;53.13;100318.41;4990182;28;114545;-68
2021/05/21 06:58:26;;;;;;;15.43;3.40;;;;;;;15.70;53.48;100322.88;4990911;28;114382;-68
2021/05/21 07:00:56;;;;;;;16.05;3.50;;;;;;;15.71;53.88;100319.25;4989967;28;124712;-69
2021/05/21 07:03:27;;;;;;;14.38;3.40;;;;;;;15.73;53.97;100332.47;4990071;28;123648;-69
2021/05/21 07:05:56;;;;;;;11.60;3.15;;;;;;;15.72;53.98;100336.09;4988944;28;114572;-69
2021/05/21 07:08:24;;;;;;;11.40;3.13;;;;;;;15.71;54.35;100329.91;4989796;28;114822;-70
2021/05/21 07:10:51;;;;;;;11.93;2.97;;;;;;;15.73;54.42;100328.03;4989986;28;124016;-69
2021/05/21 07:13:18;;;;;;;11.02;2.95;;;;;;;15.73;54.71;100322.69;4988315;28;123672;-69
2021/05/21 07:15:46;;;;;;;10.77;2.97;;;;;;;15.74;54.67;100329.69;4969738;28;113493;-69
2021/05/21 07:18:13;;;;;;;13.98;3.15;;;;;;;15.77;54.88;100323.31;4988863;28;114767;-69
2021/05/21 07:20:42;;;;;;;8.57;3.00;;;;;;;15.81;55.15;100324.78;4989648;28;125210;-69
2021/05/21 07:23:09;;;;;;;9.38;2.40;;;;;;;15.87;54.89;100331.47;4988481;28;123097;-69
2021/05/21 07:25:36;;;;;;;9.68;2.60;;;;;;;15.93;55.17;100339.00;4988919;28;114412;-68
2021/05/21 07:28:04;;;;;;;6.82;2.58;;;;;;;16.03;55.44;100333.81;4990175;28;113879;-69
2021/05/21 07:30:31;;;;;;;9.98;2.65;;;;;;;16.17;55.58;100335.44;4989345;28;124655;-71
2021/05/21 07:32:58;;;;;;;12.07;2.70;;;;;;;16.34;55.24;100333.16;4987533;28;123188;-69
2021/05/21 07:35:25;;;;;;;10.50;2.80;;;;;;;16.49;55.14;100323.09;4988982;28;115340;-70
2021/05/21 07:37:52;;;;;;;10.52;2.72;;;;;;;16.67;54.83;100322.63;4989978;28;113846;-70
2021/05/21 07:40:20;;;;;;;11.35;2.83;;;;;;;16.83;54.61;100323.16;4988184;28;123607;-69
2021/05/21 07:42:47;;;;;;;13.10;2.90;;;;;;;17.00;54.41;100323.63;4987031;28;123800;-70
2021/05/21 07:45:17;;;;;;;11.50;2.90;;;;;;;17.16;54.03;100333.94;4990350;28;114820;-69
2021/05/21 07:47:44;;;;;;;15.32;2.80;;;;;;;17.24;53.30;100318.97;4988416;28;113484;-69
2021/05/21 07:50:12;;;;;;;12.32;3.03;;;;;;;17.31;52.96;100322.84;4989115;28;124414;-70
2021/05/21 07:52:39;;;;;;;10.23;3.00;;;;;;;17.35;52.36;100306.50;4989356;28;124677;-69
2021/05/21 07:55:07;;;;;;;11.85;2.97;;;;;;;17.36;51.85;100308.22;4987809;28;115565;-69
2021/05/21 07:57:36;;;;;;;12.90;2.70;;;;;;;17.42;51.87;100291.66;4990188;28;115603;-69
2021/05/21 08:00:05;;;;;;;10.32;3.03;;;;;;;17.48;51.87;100297.38;4988306;28;124303;-69
2021/05/21 08:02:36;;;;;;;14.77;3.03;;;;;;;17.58;51.42;100297.44;4990044;28;124673;-70
2021/05/21 08:05:04;;;;;;;12.65;3.05;;;;;;;17.65;51.39;100298.63;4990044;28;114295;-70
2021/05/21 08:07:32;;;;;;;11.40;2.90;;;;;;;17.78;50.73;100294.91;4990428;28;114055;-68
2021/05/21 08:10:01;;;;;;;9.88;2.92;;;;;;;17.89;50.46;100300.25;4989332;28;124037;-69
2021/05/21 08:12:32;;;;;;;11.00;2.65;;;;;;;18.04;49.58;100280.19;4988960;28;124709;-69
2021/05/21 08:14:59;;;;;;;13.00;2.70;;;;;;;18.18;49.02;100289.75;4988813;28;114118;-69
2021/05/21 08:17:26;;;;;;;12.43;2.80;;;;;;;18.31;48.74;100292.22;4989278;28;114402;-69
2021/05/21 08:20:09;;;;;;;12.23;2.65;;;;;;;18.45;48.63;100293.69;4989913;28;124273;-69
2021/05/21 08:22:37;;;;;;;14.18;3.15;;;;;;;18.57;48.14;100283.72;4990421;28;123014;-69
2021/05/21 08:25:05;;;;;;;12.15;2.90;;;;;;;18.65;47.00;100281.22;4992349;28;114265;-70
2021/05/21 08:27:33;;;;;;;9.80;2.65;;;;;;;18.60;46.29;100283.44;4990964;28;114382;-70
2021/05/21 08:30:00;;;;;;;11.82;2.75;;;;;;;18.56;46.13;100287.41;4996994;28;123769;-70
2021/05/21 08:32:27;;;;;;;8.25;2.63;;;;;;;18.57;46.19;100294.44;4991302;28;124039;-70
2021/05/21 08:34:55;;;;;;;12.52;2.83;;;;;;;18.57;46.09;100289.06;4993413;28;114410;-71
2021/05/21 08:37:23;;;;;;;11.55;2.53;;;;;;;18.62;46.20;100289.53;4993412;28;114276;-68
2021/05/21 08:39:50;;;;;;;12.23;2.80;;;;;;;18.70;46.45;100278.97;4989846;28;124428;-68
2021/05/21 08:42:18;;;;;;;11.68;2.85;;;;;;;18.79;46.36;100291.56;4990715;28;122891;-68
2021/05/21 08:44:49;;;;;;;12.70;2.95;;;;;;;18.88;45.66;100297.16;4991285;28;115297;-70
2021/05/21 08:47:17;;;;;;;12.27;3.10;;;;;;;18.90;44.85;100289.81;4989662;28;115179;-69
2021/05/21 08:49:46;;;;;;;12.13;3.30;;;;;;;18.89;45.02;100290.78;4992162;28;123974;-69
2021/05/21 08:52:13;;;;;;;8.60;2.13;;;;;;;18.84;44.18;100305.47;4993086;28;123966;-69
2021/05/21 08:54:41;;;;;;;10.23;2.40;;;;;;;18.75;44.09;100318.81;4990170;28;113349;-70
2021/05/21 08:57:11;;;;;;;11.15;2.45;;;;;;;18.64;43.59;100311.69;4992730;28;114889;-70
2021/05/21 08:59:38;;;;;;;13.57;2.67;;;;;;;18.53;43.80;100314.47;4993086;28;123977;-69
2021/05/21 09:02:06;;;;;;;14.55;2.40;;;;;;;18.43;44.33;100319.78;4991541;28;123549;-69
2021/05/21 09:04:56;;;;;;;9.82;2.47;;;;;;;18.25;44.75;100322.22;4995155;28;114177;-70
2021/05/21 09:07:37;;;;;;;12.43;2.58;;;;;;;18.15;44.77;100326.66;4990807;28;114341;-67
2021/05/21 09:10:15;;;;;;;11.07;2.60;;;;;;;18.04;45.04;100325.75;4983624;28;124557;-70
2021/05/21 09:12:51;;;;;;;13.38;2.97;;;;;;;17.97;44.96;100329.94;4989953;28;122868;-67
2021/05/21 09:15:27;;;;;;;14.00;2.92;;;;;;;17.89;45.06;100324.34;4990979;28;115016;-67
2021/05/21 09:17:58;;;;;;;10.80;2.53;;;;;;;17.88;45.67;100314.63;4983704;28;113936;-68
2021/05/21 09:20:38;;;;;;;13.85;2.70;;;;;;;17.94;45.65;100308.75;4991778;28;124070;-68
2021/05/21 09:23:10;;;;;;;12.50;3.03;;;;;;;18.03;45.84;100312.50;4980870;28;123727;-68
2021/05/21 09:25:42;;;;;;;14.30;3.22;;;;;;;18.14;46.20;100311.56;4994287;28;114095;-68
2021/05/21 09:28:33;;;;;;;12.82;3.30;;;;;;;18.27;46.48;100304.16;4992561;28;112941;-67
2021/05/21 09:31:23;;;;;;;16.35;3.42;;;;;;;18.43;45.88;100288.44;4989451;28;123971;-69
2021/05/21 09:33:52;;;;;;;13.77;3.03;;;;;;;18.57;46.23;100283.72;4992803;28;123950;-69
2021/05/21 09:36:27;;;;;;;12.93;3.22;;;;;;;18.76;45.94;100288.31;4993335;28;115439;-68
2021/05/21 09:38:56;;;;;;;12.60;2.78;;;;;;;18.92;45.43;100293.22;4991668;28;115268;-69
2021/05/21 09:41:52;;;;;;;12.73;3.10;;;;;;;19.09;44.37;100279.13;4990651;28;123074;-68
2021/05/21 09:44:21;;;;;;;10.00;2.60;;;;;;;19.15;44.47;100281.25;4991331;28;123996;-68
2021/05/21 09:46:50;;;;;;;12.25;2.80;;;;;;;19.23;44.59;100276.03;4991087;28;114025;-67
2021/05/21 09:49:38;;;;;;;12.40;2.72;;;;;;;19.35;43.98;100273.22;4992171;28;114399;-68
2021/05/21 09:52:08;;;;;;;17.70;2.80;;;;;;;19.43;42.98;100287.63;4992131;28;124709;-68
2021/05/21 09:54:57;;;;;;;8.82;2.05;;;;;;;19.44;42.82;100275.91;4992079;28;123599;-68
2021/05/21 09:57:32;;;;;;;10.60;2.65;;;;;;;19.49;42.24;100280.84;4988517;28;113517;-68
2021/05/21 10:00:00;;;;;;;11.80;2.50;;;;;;;19.50;41.94;100282.56;5003972;28;113226;-68
2021/05/21 10:02:31;;;;;;;11.85;2.50;;;;;;;19.46;41.20;100275.78;4992003;28;124916;-69
2021/05/21 10:05:00;;;;;;;12.82;2.90;;;;;;;19.39;41.06;100280.00;4989156;28;124611;-67
2021/05/21 10:07:28;;;;;;;10.07;2.50;;;;;;;19.34;40.72;100276.88;4991925;28;114140;-69
2021/05/21 10:09:54;;;;;;;11.00;2.70;;;;;;;19.27;40.70;100276.63;4992462;28;114059;-68
2021/05/21 10:12:22;;;;;;;13.00;2.20;;;;;;;19.23;40.58;100286.78;4992346;28;124425;-69
2021/05/21 10:14:50;;;;;;;8.50;2.20;;;;;;;19.19;40.28;100285.38;4992312;28;124523;-69
2021/05/21 10:17:23;;;;;;;8.75;2.35;;;;;;;19.14;39.97;100266.13;4990013;28;114218;-68
2021/05/21 10:19:53;;;;;;;8.40;2.25;;;;;;;19.15;40.01;100275.03;4990692;28;114330;-68
2021/05/21 10:22:37;;;;;;;10.27;2.63;;;;;;;19.13;40.67;100269.78;4991420;28;124859;-68
2021/05/21 10:25:17;;;;;;;10.88;2.45;;;;;;;19.15;40.18;100273.19;4988886;28;124227;-68
2021/05/21 10:27:47;;;;;;;9.50;2.60;;;;;;;19.14;40.19;100281.41;4988021;28;115052;-67
2021/05/21 10:30:16;;;;;;;14.43;2.90;;;;;;;19.09;39.89;100268.38;4989110;28;117086;-68
2021/05/21 10:32:43;;;;;;;9.18;2.53;;;;;;;19.05;39.98;100264.28;4988341;28;124550;-69
2021/05/21 10:35:28;;;;;;;10.60;2.60;;;;;;;18.97;40.09;100264.97;4990126;28;124399;-68
2021/05/21 10:38:25;;;;;;;11.98;2.40;;;;;;;18.92;40.16;100271.75;4987978;28;114240;-67
2021/05/21 10:41:16;;;;;;;9.00;2.25;;;;;;;18.96;40.62;100267.78;4990222;28;114699;-67
2021/05/21 10:43:55;;;;;;;11.25;2.55;;;;;;;19.09;40.69;100263.00;4989241;28;123167;-68
2021/05/21 10:46:34;;;;;;;9.85;2.63;;;;;;;19.30;41.03;100251.31;4975050;28;123674;-67
2021/05/21 10:49:03;;;;;;;10.00;2.35;;;;;;;19.50;40.80;100244.97;4991094;28;114047;-68
2021/05/21 10:51:51;;;;;;;8.48;2.10;;;;;;;19.68;40.43;100242.38;4990390;28;114034;-67
2021/05/21 10:54:29;;;;;;;9.05;2.22;;;;;;;19.79;39.60;100250.34;4987953;28;123377;-68
2021/05/21 10:57:08;;;;;;;13.18;2.67;;;;;;;19.81;39.14;100247.50;4990132;28;123680;-67
2021/05/21 10:59:59;;;;;;;10.80;2.17;;;;;;;19.81;38.82;100236.75;4987968;28;114918;-68
2021/05/21 11:02:44;;;;;;;12.55;2.40;;;;;;;19.85;38.63;100232.78;4987621;28;114121;-68
2021/05/21 11:05:34;;;;;;;9.75;2.50;;;;;;;19.86;38.74;100218.38;4987562;28;123739;-67
2021/05/21 11:08:07;;;;;;;10.65;2.20;;;;;;;19.90;38.60;100225.16;4987177;28;123876;-67
2021/05/21 11:10:34;;;;;;;11.55;2.88;;;;;;;19.92;38.64;100217.78;4987087;28;113293;-68
2021/05/21 11:13:13;;;;;;;12.70;2.70;;;;;;;19.92;38.52;100209.72;4989688;28;114224;-68
2021/05/21 11:15:47;;;;;;;11.23;2.40;;;;;;;19.90;37.83;100219.78;4989303;28;125004;-68
2021/05/21 11:18:20;;;;;;;9.90;2.45;;;;;;;19.84;37.98;100214.97;4990029;28;123859;-68
2021/05/21 11:21:14;;;;;;;10.52;2.35;;;;;;;19.72;38.17;100205.34;4969012;28;114281;-68
2021/05/21 11:23:44;;;;;;;11.27;2.28;;;;;;;19.64;38.13;100236.44;4988310;28;114932;-68
2021/05/21 11:26:14;;;;;;;10.18;2.28;;;;;;;19.54;38.16;100241.00;4987654;28;126284;-68